AIC1UB EDDL-EGPH
Flight info
| Callsign | AIC1UB |
|---|---|
| Flight time | N/A |
| Altitude | 38000 |
| Route | SONEB6Z/05R SONEB P64 TENLI L602 SPY DCT GODOS DCT AGPED |
| Aircraft | A320/M-SDE3FGHIRWY/LB1 |
Departure
| Time | 2026-05-05 18:47 |
|---|---|
| Airport | Düsseldorf Airport (EDDL) |
Arrival
| Time | N/A |
|---|---|
| Airport | Edinburgh Airport (EGPH) |
| Time | Latitude | Longitude | Altitude | Speed | Heading |
|---|---|---|---|---|---|
| 2026-05-05 18:26 | 51.27587 | 6.75657 | 126 ft | 0 kts | 63° |
| 2026-05-05 18:32 | 51.27581 | 6.75637 | 125 ft | 2 kts | 63° |
| 2026-05-05 18:32 | 51.27573 | 6.75612 | 124 ft | 3 kts | 59° |
| 2026-05-05 18:33 | 51.27563 | 6.75590 | 125 ft | 2 kts | 16° |
| 2026-05-05 18:33 | 51.27546 | 6.75589 | 124 ft | 2 kts | 355° |
| 2026-05-05 18:33 | 51.27529 | 6.75593 | 127 ft | 2 kts | 331° |
| 2026-05-05 18:33 | 51.27514 | 6.75604 | 128 ft | 2 kts | 336° |
| 2026-05-05 18:34 | 51.27499 | 6.75615 | 124 ft | 2 kts | 336° |
| 2026-05-05 18:34 | 51.27495 | 6.75617 | 124 ft | 0 kts | 329° |
| 2026-05-05 18:41 | 51.27526 | 6.75591 | 126 ft | 7 kts | 332° |
| 2026-05-05 18:41 | 51.27580 | 6.75546 | 124 ft | 10 kts | 333° |
| 2026-05-05 18:41 | 51.27657 | 6.75497 | 126 ft | 13 kts | 334° |
| 2026-05-05 18:41 | 51.27736 | 6.75433 | 124 ft | 11 kts | 333° |
| 2026-05-05 18:42 | 51.27795 | 6.75386 | 126 ft | 5 kts | 333° |
| 2026-05-05 18:42 | 51.27814 | 6.75370 | 124 ft | 2 kts | 333° |
| 2026-05-05 18:42 | 51.27829 | 6.75359 | 124 ft | 2 kts | 333° |
| 2026-05-05 18:42 | 51.27842 | 6.75347 | 125 ft | 2 kts | 333° |
| 2026-05-05 18:43 | 51.27846 | 6.75345 | 122 ft | 0 kts | 333° |
| 2026-05-05 18:43 | 51.27873 | 6.75323 | 123 ft | 6 kts | 333° |
| 2026-05-05 18:43 | 51.27893 | 6.75307 | 123 ft | 0 kts | 334° |
| 2026-05-05 18:45 | 51.27921 | 6.75284 | 122 ft | 9 kts | 334° |
| 2026-05-05 18:46 | 51.27985 | 6.75277 | 125 ft | 10 kts | 16° |
| 2026-05-05 18:46 | 51.28032 | 6.75349 | 124 ft | 10 kts | 53° |
| 2026-05-05 18:46 | 51.28035 | 6.75355 | 124 ft | 0 kts | 53° |
| 2026-05-05 18:46 | 51.28036 | 6.75357 | 124 ft | 2 kts | 53° |
| 2026-05-05 18:47 | 51.28127 | 6.75547 | 127 ft | 57 kts | 52° |
| 2026-05-05 18:47 | 51.28519 | 6.76368 | 129 ft | 126 kts | 52° |
| 2026-05-05 18:47 | 51.29135 | 6.77695 | 309 ft | 163 kts | 52° |
| 2026-05-05 18:47 | 51.29820 | 6.79253 | 850 ft | 179 kts | 51° |
| 2026-05-05 18:48 | 51.30574 | 6.80894 | 1476 ft | 192 kts | 51° |
| 2026-05-05 18:48 | 51.31427 | 6.82667 | 2005 ft | 210 kts | 51° |
| 2026-05-05 18:48 | 51.32362 | 6.84589 | 2654 ft | 224 kts | 52° |
| 2026-05-05 18:48 | 51.33360 | 6.86652 | 3317 ft | 245 kts | 54° |
| 2026-05-05 18:49 | 51.34413 | 6.88877 | 4169 ft | 256 kts | 49° |
| 2026-05-05 18:49 | 51.35868 | 6.90595 | 4781 ft | 268 kts | 21° |
| 2026-05-05 18:49 | 51.37688 | 6.91257 | 4953 ft | 269 kts | 10° |
| 2026-05-05 18:49 | 51.39565 | 6.91739 | 5533 ft | 275 kts | 10° |
| 2026-05-05 18:50 | 51.41463 | 6.92211 | 6399 ft | 278 kts | 9° |
| 2026-05-05 18:50 | 51.43380 | 6.92693 | 6806 ft | 281 kts | 9° |
| 2026-05-05 18:50 | 51.45313 | 6.93194 | 7777 ft | 282 kts | 9° |
| 2026-05-05 18:50 | 51.47264 | 6.93708 | 8741 ft | 286 kts | 9° |
| 2026-05-05 18:51 | 51.49256 | 6.94029 | 9678 ft | 290 kts | 356° |
| 2026-05-05 18:51 | 51.51288 | 6.93513 | 10269 ft | 306 kts | 348° |
| 2026-05-05 18:51 | 51.53409 | 6.92841 | 10797 ft | 321 kts | 347° |
| 2026-05-05 18:51 | 51.55621 | 6.92105 | 11576 ft | 327 kts | 347° |
| 2026-05-05 18:52 | 51.57868 | 6.91345 | 12384 ft | 332 kts | 347° |
| 2026-05-05 18:52 | 51.60152 | 6.90574 | 13205 ft | 338 kts | 347° |
| 2026-05-05 18:52 | 51.62481 | 6.89793 | 13925 ft | 344 kts | 347° |
| 2026-05-05 18:52 | 51.64845 | 6.89002 | 14604 ft | 349 kts | 347° |
| 2026-05-05 18:53 | 51.67242 | 6.88198 | 15341 ft | 353 kts | 347° |
| 2026-05-05 18:53 | 51.69628 | 6.87398 | 16070 ft | 357 kts | 347° |
| 2026-05-05 18:53 | 51.72075 | 6.86581 | 16779 ft | 361 kts | 347° |
| 2026-05-05 18:53 | 51.74554 | 6.85752 | 17491 ft | 365 kts | 347° |
| 2026-05-05 18:54 | 51.77036 | 6.84922 | 18185 ft | 369 kts | 347° |
| 2026-05-05 18:54 | 51.79567 | 6.84077 | 18793 ft | 373 kts | 347° |
| 2026-05-05 18:54 | 51.82124 | 6.83222 | 19391 ft | 377 kts | 347° |
| 2026-05-05 18:54 | 51.84710 | 6.82356 | 19987 ft | 381 kts | 347° |
| 2026-05-05 18:55 | 51.87318 | 6.81480 | 20651 ft | 383 kts | 347° |
| 2026-05-05 18:55 | 51.89939 | 6.80595 | 21275 ft | 387 kts | 347° |
| 2026-05-05 18:55 | 51.92592 | 6.79702 | 21848 ft | 391 kts | 347° |
| 2026-05-05 18:55 | 51.95278 | 6.78798 | 22405 ft | 396 kts | 347° |
| 2026-05-05 18:56 | 51.97973 | 6.77792 | 22952 ft | 400 kts | 341° |
| 2026-05-05 18:56 | 52.00511 | 6.75920 | 23482 ft | 401 kts | 324° |
| 2026-05-05 18:56 | 52.02585 | 6.73006 | 23945 ft | 400 kts | 307° |
| 2026-05-05 18:56 | 52.04188 | 6.69251 | 24450 ft | 401 kts | 300° |
| 2026-05-05 18:57 | 52.05680 | 6.65480 | 24954 ft | 403 kts | 300° |
| 2026-05-05 18:57 | 52.07196 | 6.61619 | 25447 ft | 406 kts | 299° |
| 2026-05-05 18:57 | 52.08717 | 6.57723 | 25929 ft | 409 kts | 299° |
| 2026-05-05 18:57 | 52.10253 | 6.53784 | 26405 ft | 412 kts | 299° |
| 2026-05-05 18:58 | 52.11795 | 6.49842 | 26920 ft | 414 kts | 299° |
| 2026-05-05 18:58 | 52.13345 | 6.45882 | 27393 ft | 416 kts | 299° |
| 2026-05-05 18:58 | 52.14902 | 6.41896 | 27846 ft | 419 kts | 299° |
| 2026-05-05 18:58 | 52.16471 | 6.37874 | 28317 ft | 421 kts | 299° |
| 2026-05-05 18:59 | 52.18050 | 6.33828 | 28732 ft | 424 kts | 299° |
| 2026-05-05 18:59 | 52.19103 | 6.31131 | 29010 ft | 426 kts | 299° |
| 2026-05-05 18:59 | 52.20695 | 6.27045 | 29423 ft | 428 kts | 299° |
| 2026-05-05 18:59 | 52.22293 | 6.22929 | 29829 ft | 431 kts | 298° |
| 2026-05-05 19:00 | 52.23897 | 6.18780 | 30183 ft | 434 kts | 298° |
| 2026-05-05 19:00 | 52.25508 | 6.14601 | 30514 ft | 436 kts | 298° |
| 2026-05-05 19:00 | 52.27131 | 6.10386 | 30848 ft | 439 kts | 298° |
| 2026-05-05 19:00 | 52.28762 | 6.06147 | 31166 ft | 441 kts | 298° |
| 2026-05-05 19:01 | 52.30396 | 6.01895 | 31592 ft | 441 kts | 298° |
| 2026-05-05 19:01 | 52.32026 | 5.97651 | 32044 ft | 440 kts | 297° |
| 2026-05-05 19:01 | 52.33631 | 5.93468 | 32503 ft | 439 kts | 297° |
| 2026-05-05 19:01 | 52.35250 | 5.89238 | 32956 ft | 438 kts | 297° |
| 2026-05-05 19:02 | 52.36863 | 5.85019 | 33409 ft | 438 kts | 297° |
| 2026-05-05 19:02 | 52.38475 | 5.80789 | 33863 ft | 437 kts | 297° |
| 2026-05-05 19:02 | 52.40078 | 5.76578 | 34270 ft | 435 kts | 297° |
| 2026-05-05 19:02 | 52.41676 | 5.72374 | 34667 ft | 433 kts | 297° |
| 2026-05-05 19:03 | 52.43269 | 5.68174 | 35038 ft | 432 kts | 297° |
| 2026-05-05 19:03 | 52.44848 | 5.63998 | 35410 ft | 430 kts | 297° |
| 2026-05-05 19:03 | 52.46418 | 5.59833 | 35774 ft | 429 kts | 297° |
| 2026-05-05 19:03 | 52.47986 | 5.55671 | 36132 ft | 428 kts | 297° |
| 2026-05-05 19:04 | 52.49549 | 5.51522 | 36463 ft | 426 kts | 297° |
| 2026-05-05 19:04 | 52.51110 | 5.47377 | 36810 ft | 425 kts | 298° |
| 2026-05-05 19:04 | 52.52635 | 5.43330 | 37121 ft | 424 kts | 298° |
| 2026-05-05 19:04 | 52.54188 | 5.39197 | 37433 ft | 423 kts | 298° |
| 2026-05-05 19:05 | 52.55732 | 5.35073 | 37736 ft | 423 kts | 298° |
| 2026-05-05 19:05 | 52.57271 | 5.30945 | 37900 ft | 422 kts | 298° |
| 2026-05-05 19:05 | 52.60310 | 5.22768 | 37923 ft | 419 kts | 298° |
| 2026-05-05 19:06 | 52.63366 | 5.14556 | 37922 ft | 419 kts | 298° |
| 2026-05-05 19:06 | 52.66405 | 5.06378 | 37934 ft | 419 kts | 298° |
| 2026-05-05 19:07 | 52.69436 | 4.98184 | 37933 ft | 420 kts | 297° |
| 2026-05-05 19:07 | 52.72469 | 4.89930 | 37932 ft | 421 kts | 297° |
| 2026-05-05 19:08 | 52.75497 | 4.81666 | 37943 ft | 421 kts | 297° |
| 2026-05-05 19:08 | 52.78508 | 4.73433 | 37946 ft | 421 kts | 297° |
| 2026-05-05 19:09 | 52.81524 | 4.65143 | 37938 ft | 421 kts | 297° |
| 2026-05-05 19:09 | 52.84544 | 4.56832 | 37942 ft | 421 kts | 297° |
| 2026-05-05 19:10 | 52.87571 | 4.48461 | 37954 ft | 421 kts | 297° |
| 2026-05-05 19:10 | 52.90548 | 4.40189 | 37953 ft | 421 kts | 297° |
| 2026-05-05 19:11 | 52.93550 | 4.31857 | 37966 ft | 421 kts | 297° |
| 2026-05-05 19:11 | 52.96547 | 4.23512 | 37971 ft | 420 kts | 297° |
| 2026-05-05 19:12 | 52.99530 | 4.15161 | 37977 ft | 420 kts | 296° |
| 2026-05-05 19:12 | 53.02505 | 4.06816 | 37973 ft | 419 kts | 296° |
| 2026-05-05 19:13 | 53.05453 | 3.98510 | 37976 ft | 419 kts | 296° |
| 2026-05-05 19:13 | 53.08409 | 3.90158 | 37971 ft | 419 kts | 296° |
| 2026-05-05 19:14 | 53.11361 | 3.81792 | 37976 ft | 419 kts | 296° |
| 2026-05-05 19:14 | 53.14309 | 3.73400 | 37971 ft | 419 kts | 296° |
| 2026-05-05 19:15 | 53.17242 | 3.65013 | 37969 ft | 419 kts | 296° |
| 2026-05-05 19:15 | 53.20176 | 3.56611 | 37998 ft | 419 kts | 296° |
| 2026-05-05 19:16 | 53.23092 | 3.48215 | 37995 ft | 417 kts | 296° |
| 2026-05-05 19:16 | 53.26019 | 3.39853 | 37988 ft | 417 kts | 298° |
| 2026-05-05 19:17 | 53.29132 | 3.31734 | 37986 ft | 417 kts | 300° |
| 2026-05-05 19:17 | 53.32340 | 3.23641 | 37983 ft | 417 kts | 300° |
| 2026-05-05 19:18 | 53.35511 | 3.15511 | 37983 ft | 416 kts | 299° |
| 2026-05-05 19:18 | 53.38635 | 3.07331 | 37991 ft | 416 kts | 299° |
| 2026-05-05 19:19 | 53.41739 | 2.99143 | 37984 ft | 416 kts | 299° |
| 2026-05-05 19:19 | 53.44841 | 2.90966 | 37981 ft | 415 kts | 299° |
| 2026-05-05 19:20 | 53.47926 | 2.82843 | 37982 ft | 415 kts | 299° |
| 2026-05-05 19:20 | 53.51023 | 2.74643 | 37980 ft | 415 kts | 299° |
| 2026-05-05 19:21 | 53.54107 | 2.66435 | 37981 ft | 415 kts | 299° |
| 2026-05-05 19:21 | 53.57192 | 2.58216 | 37992 ft | 415 kts | 299° |
| 2026-05-05 19:22 | 53.60246 | 2.50048 | 37983 ft | 415 kts | 299° |
| 2026-05-05 19:22 | 53.63315 | 2.41804 | 37980 ft | 415 kts | 299° |
| 2026-05-05 19:23 | 53.66379 | 2.33560 | 37985 ft | 415 kts | 299° |
| 2026-05-05 19:23 | 53.69432 | 2.25310 | 37983 ft | 415 kts | 299° |
| 2026-05-05 19:24 | 53.72483 | 2.17033 | 38000 ft | 415 kts | 299° |
| 2026-05-05 19:24 | 53.75526 | 2.08761 | 37978 ft | 414 kts | 298° |
| 2026-05-05 19:25 | 53.78548 | 2.00517 | 37990 ft | 414 kts | 298° |
| 2026-05-05 19:25 | 53.81583 | 1.92221 | 37995 ft | 414 kts | 298° |
| 2026-05-05 19:26 | 53.84609 | 1.83914 | 37995 ft | 414 kts | 298° |
| 2026-05-05 19:26 | 53.87628 | 1.75593 | 37984 ft | 414 kts | 298° |
| 2026-05-05 19:27 | 53.90635 | 1.67255 | 37993 ft | 414 kts | 298° |
| 2026-05-05 19:27 | 53.93623 | 1.58960 | 38007 ft | 414 kts | 298° |
| 2026-05-05 19:28 | 53.96627 | 1.50618 | 38002 ft | 414 kts | 298° |
| 2026-05-05 19:28 | 53.99624 | 1.42245 | 38017 ft | 414 kts | 298° |
| 2026-05-05 19:29 | 54.02608 | 1.33862 | 38012 ft | 414 kts | 298° |
| 2026-05-05 19:29 | 54.05595 | 1.25463 | 38013 ft | 414 kts | 298° |
| 2026-05-05 19:30 | 54.08576 | 1.17065 | 38017 ft | 414 kts | 298° |
| 2026-05-05 19:30 | 54.11528 | 1.08722 | 38013 ft | 414 kts | 298° |
| 2026-05-05 19:31 | 54.14486 | 1.00304 | 38028 ft | 414 kts | 298° |
| 2026-05-05 19:31 | 54.17441 | 0.91869 | 38018 ft | 413 kts | 298° |
| 2026-05-05 19:32 | 54.20389 | 0.83449 | 38029 ft | 413 kts | 298° |
| 2026-05-05 19:32 | 54.23330 | 0.75003 | 38020 ft | 413 kts | 298° |
| 2026-05-05 19:33 | 54.26266 | 0.66548 | 38039 ft | 413 kts | 298° |
| 2026-05-05 19:33 | 54.29173 | 0.58143 | 38044 ft | 412 kts | 298° |
| 2026-05-05 19:34 | 54.32102 | 0.49648 | 38049 ft | 411 kts | 298° |
| 2026-05-05 19:35 | 54.36428 | 0.37040 | 38049 ft | 411 kts | 298° |
| 2026-05-05 19:35 | 54.39322 | 0.28581 | 38045 ft | 410 kts | 298° |
| 2026-05-05 19:36 | 54.42204 | 0.20126 | 38051 ft | 410 kts | 298° |
| 2026-05-05 19:36 | 54.45082 | 0.11648 | 38046 ft | 410 kts | 297° |
| 2026-05-05 19:37 | 54.47956 | 0.03161 | 38046 ft | 410 kts | 297° |
| 2026-05-05 19:37 | 54.50820 | -0.05353 | 38071 ft | 410 kts | 297° |
| 2026-05-05 19:38 | 54.53666 | -0.13808 | 37979 ft | 415 kts | 297° |
| 2026-05-05 19:38 | 54.55132 | -0.18181 | 37699 ft | 427 kts | 297° |
| 2026-05-05 19:38 | 54.56619 | -0.22638 | 37432 ft | 430 kts | 297° |
| 2026-05-05 19:38 | 54.58113 | -0.27119 | 37167 ft | 430 kts | 297° |
| 2026-05-05 19:39 | 54.59601 | -0.31575 | 36897 ft | 428 kts | 297° |
| 2026-05-05 19:39 | 54.61085 | -0.36019 | 36632 ft | 425 kts | 297° |
| 2026-05-05 19:39 | 54.62556 | -0.40430 | 36373 ft | 423 kts | 297° |
| 2026-05-05 19:39 | 54.64016 | -0.44821 | 36121 ft | 420 kts | 297° |
| 2026-05-05 19:40 | 54.65460 | -0.49190 | 35868 ft | 418 kts | 297° |
| 2026-05-05 19:40 | 54.66894 | -0.53546 | 35623 ft | 415 kts | 297° |
| 2026-05-05 19:40 | 54.68317 | -0.57875 | 35372 ft | 413 kts | 297° |
| 2026-05-05 19:40 | 54.69730 | -0.62182 | 35123 ft | 411 kts | 297° |
| 2026-05-05 19:41 | 54.71121 | -0.66420 | 34892 ft | 408 kts | 296° |
| 2026-05-05 19:41 | 54.72518 | -0.70682 | 34654 ft | 406 kts | 296° |
| 2026-05-05 19:41 | 54.73908 | -0.74924 | 34411 ft | 404 kts | 296° |
| 2026-05-05 19:41 | 54.75288 | -0.79146 | 34191 ft | 401 kts | 296° |
| 2026-05-05 19:42 | 54.76651 | -0.83323 | 33942 ft | 396 kts | 296° |
| 2026-05-05 19:42 | 54.78002 | -0.87471 | 33668 ft | 394 kts | 296° |
| 2026-05-05 19:42 | 54.78893 | -0.90209 | 33484 ft | 392 kts | 295° |
| 2026-05-05 19:42 | 54.80225 | -0.94313 | 33211 ft | 390 kts | 295° |
| 2026-05-05 19:43 | 54.81555 | -0.98419 | 32936 ft | 388 kts | 295° |
| 2026-05-05 19:43 | 54.82873 | -1.02497 | 32666 ft | 387 kts | 295° |
| 2026-05-05 19:43 | 54.84188 | -1.06566 | 32402 ft | 385 kts | 295° |
| 2026-05-05 19:43 | 54.85494 | -1.10608 | 32161 ft | 384 kts | 295° |
| 2026-05-05 19:44 | 54.86796 | -1.14646 | 31893 ft | 382 kts | 295° |
| 2026-05-05 19:44 | 54.88091 | -1.18672 | 31631 ft | 381 kts | 295° |
| 2026-05-05 19:44 | 54.89380 | -1.22682 | 31389 ft | 379 kts | 295° |
| 2026-05-05 19:44 | 54.90648 | -1.26633 | 31144 ft | 378 kts | 295° |
| 2026-05-05 19:45 | 54.91925 | -1.30615 | 30893 ft | 376 kts | 295° |
| 2026-05-05 19:45 | 54.93197 | -1.34590 | 30650 ft | 375 kts | 295° |
| 2026-05-05 19:45 | 54.94457 | -1.38545 | 30406 ft | 374 kts | 295° |
| 2026-05-05 19:45 | 54.95713 | -1.42501 | 30160 ft | 372 kts | 295° |
| 2026-05-05 19:46 | 54.96962 | -1.46441 | 29880 ft | 371 kts | 295° |
| 2026-05-05 19:46 | 54.98204 | -1.50360 | 29595 ft | 369 kts | 295° |
| 2026-05-05 19:46 | 54.99444 | -1.54274 | 29314 ft | 367 kts | 295° |
| 2026-05-05 19:46 | 55.00674 | -1.58166 | 29047 ft | 366 kts | 295° |
| 2026-05-05 19:47 | 55.01898 | -1.62041 | 28770 ft | 364 kts | 295° |
| 2026-05-05 19:47 | 55.03112 | -1.65893 | 28495 ft | 362 kts | 296° |
| 2026-05-05 19:47 | 55.04325 | -1.69746 | 28216 ft | 361 kts | 296° |
| 2026-05-05 19:47 | 55.05532 | -1.73584 | 27952 ft | 360 kts | 296° |
| 2026-05-05 19:48 | 55.06736 | -1.77420 | 27688 ft | 359 kts | 296° |
| 2026-05-05 19:48 | 55.07916 | -1.81185 | 27420 ft | 357 kts | 296° |
| 2026-05-05 19:48 | 55.09102 | -1.84982 | 27165 ft | 353 kts | 296° |
| 2026-05-05 19:48 | 55.10267 | -1.88725 | 26793 ft | 348 kts | 296° |
| 2026-05-05 19:49 | 55.11414 | -1.92412 | 26367 ft | 344 kts | 296° |
| 2026-05-05 19:49 | 55.12555 | -1.96069 | 25959 ft | 341 kts | 297° |
| 2026-05-05 19:49 | 55.13723 | -1.99699 | 25447 ft | 344 kts | 298° |
| 2026-05-05 19:49 | 55.14111 | -2.00878 | 25285 ft | 344 kts | 298° |